Time;durP1;ratioP1;P1;durP2;ratioP2;P2;SDS_P1;SDS_P2;PMS_P1;PMS_P2;Temp;Humidity;BMP_temperature;BMP_pressure;BME280_temperature;BME280_humidity;BME280_pressure;Samples;Min_cycle;Max_cycle;Signal;HPM_P1;HPM_P2
2021/10/29 00:00:36;;;;;;;21.02;16.67;;;10.10;99.90;;;;;;5084092;28;20454;-66
2021/10/29 00:03:03;;;;;;;23.65;17.75;;;10.00;99.90;;;;;;5042014;28;20044;-66
2021/10/29 00:05:28;;;;;;;29.20;17.58;;;10.10;99.90;;;;;;5054317;28;20067;-66
2021/10/29 00:07:54;;;;;;;24.80;19.52;;;10.00;99.90;;;;;;5055629;28;20032;-66
2021/10/29 00:10:20;;;;;;;23.70;18.63;;;10.00;99.90;;;;;;5057357;28;20052;-66
2021/10/29 00:12:46;;;;;;;22.38;17.25;;;10.00;99.90;;;;;;5054595;28;20127;-66
2021/10/29 00:15:12;;;;;;;22.90;18.63;;;10.00;99.90;;;;;;5055569;28;20055;-66
2021/10/29 00:17:37;;;;;;;24.02;18.23;;;10.00;99.90;;;;;;5041348;28;20078;-66
2021/10/29 00:20:05;;;;;;;24.17;18.63;;;10.00;99.90;;;;;;5061555;28;20123;-66
2021/10/29 00:22:31;;;;;;;25.90;18.73;;;9.90;99.90;;;;;;5088741;28;20040;-66
2021/10/29 00:24:57;;;;;;;23.52;18.15;;;10.00;99.90;;;;;;5060062;28;20066;-66
2021/10/29 00:27:23;;;;;;;24.48;18.73;;;9.90;99.90;;;;;;5056412;28;20036;-66
2021/10/29 00:29:49;;;;;;;23.90;17.95;;;10.00;99.90;;;;;;5056561;28;20047;-66
2021/10/29 00:32:15;;;;;;;25.77;18.70;;;9.90;99.90;;;;;;5059263;28;20072;-66
2021/10/29 00:34:40;;;;;;;21.92;17.50;;;9.90;99.90;;;;;;5059758;28;20461;-66
2021/10/29 00:37:06;;;;;;;21.73;17.23;;;9.90;99.90;;;;;;5057512;28;20041;-66
2021/10/29 00:39:32;;;;;;;22.80;17.95;;;9.90;99.90;;;;;;5060241;28;20040;-66
2021/10/29 00:41:58;;;;;;;26.90;18.15;;;10.00;99.90;;;;;;5057127;28;20044;-66
2021/10/29 00:44:27;;;;;;;21.65;17.65;;;10.00;99.90;;;;;;5059290;28;20135;-66
2021/10/29 00:46:53;;;;;;;21.33;16.58;;;10.00;99.90;;;;;;5090076;28;20040;-66
2021/10/29 00:49:19;;;;;;;19.27;17.25;;;10.00;99.90;;;;;;5058889;28;20086;-66
2021/10/29 00:51:45;;;;;;;20.63;16.73;;;10.00;99.90;;;;;;5088844;28;20060;-66
2021/10/29 00:54:12;;;;;;;24.67;17.45;;;10.00;99.90;;;;;;5056764;28;20504;-66
2021/10/29 00:56:38;;;;;;;22.30;16.73;;;10.00;99.90;;;;;;5056299;28;20966;-66
2021/10/29 00:59:03;;;;;;;24.98;18.52;;;10.00;99.90;;;;;;5058272;28;20044;-66
2021/10/29 01:01:29;;;;;;;26.83;17.90;;;10.00;99.90;;;;;;5057867;28;20052;-66
2021/10/29 01:03:56;;;;;;;20.23;17.77;;;10.00;99.90;;;;;;5056289;28;20041;-66
2021/10/29 01:06:22;;;;;;;21.55;16.23;;;9.90;99.90;;;;;;5088541;28;22934;-66
2021/10/29 01:08:48;;;;;;;24.25;17.05;;;9.90;99.90;;;;;;5058907;28;20044;-66
2021/10/29 01:11:17;;;;;;;24.30;16.52;;;9.90;99.90;;;;;;5056810;28;20527;-66
2021/10/29 01:13:47;;;;;;;24.30;17.52;;;9.90;99.90;;;;;;5055925;28;20049;-66
2021/10/29 01:16:14;;;;;;;26.00;17.92;;;9.90;99.90;;;;;;5056218;28;20394;-66
2021/10/29 01:18:39;;;;;;;24.23;18.20;;;9.90;99.90;;;;;;5059078;28;20566;-66
2021/10/29 01:21:05;;;;;;;20.00;16.83;;;9.90;99.90;;;;;;5054099;28;20068;-66
2021/10/29 01:23:33;;;;;;;23.45;17.83;;;9.90;99.90;;;;;;5072775;28;20043;-66
2021/10/29 01:26:08;;;;;;;25.08;17.50;;;9.80;99.90;;;;;;5058458;28;20049;-66
2021/10/29 01:28:38;;;;;;;22.52;17.38;;;9.90;99.90;;;;;;5039832;28;20540;-66
2021/10/29 01:31:04;;;;;;;20.90;17.23;;;9.80;99.90;;;;;;5057359;28;20063;-66
2021/10/29 01:33:30;;;;;;;24.40;19.02;;;9.80;99.90;;;;;;5056182;28;20049;-66
2021/10/29 01:35:57;;;;;;;20.70;16.90;;;9.80;99.90;;;;;;5053725;28;20036;-66
2021/10/29 01:38:38;;;;;;;22.10;17.33;;;9.80;99.90;;;;;;5087127;28;20064;-66
2021/10/29 01:41:07;;;;;;;21.17;17.95;;;9.80;99.90;;;;;;5060556;28;20033;-66
2021/10/29 01:43:47;;;;;;;23.55;17.98;;;9.70;99.90;;;;;;5055999;28;20041;-66
2021/10/29 01:46:14;;;;;;;20.95;17.42;;;9.70;99.90;;;;;;5086729;27;20051;-66
2021/10/29 01:48:46;;;;;;;22.60;17.98;;;9.60;99.90;;;;;;5054516;28;20051;-66
2021/10/29 01:51:13;;;;;;;23.42;18.33;;;9.60;99.90;;;;;;5054811;28;20083;-66
2021/10/29 01:53:39;;;;;;;22.38;16.58;;;9.60;99.90;;;;;;5057085;28;20047;-66
2021/10/29 01:56:06;;;;;;;24.58;18.48;;;9.60;99.90;;;;;;5052113;28;20048;-66
2021/10/29 01:58:32;;;;;;;21.30;17.33;;;9.60;99.90;;;;;;5056779;28;20033;-66
2021/10/29 02:00:58;;;;;;;20.75;17.17;;;9.60;99.90;;;;;;5054903;28;20053;-66
2021/10/29 02:03:23;;;;;;;20.63;17.08;;;9.60;99.90;;;;;;5055887;28;20070;-66
2021/10/29 02:05:51;;;;;;;22.17;16.75;;;9.50;99.90;;;;;;5055487;28;20129;-66
2021/10/29 02:08:19;;;;;;;20.98;16.27;;;9.50;99.90;;;;;;5055909;28;20048;-66
2021/10/29 02:10:45;;;;;;;19.73;17.58;;;9.60;99.90;;;;;;5055742;28;20036;-66
2021/10/29 02:13:11;;;;;;;19.05;15.93;;;9.60;99.90;;;;;;5057623;28;20041;-66
2021/10/29 02:15:36;;;;;;;20.38;17.17;;;9.70;99.90;;;;;;5059108;28;20603;-66
2021/10/29 02:18:02;;;;;;;18.75;16.33;;;9.60;99.90;;;;;;5086010;28;20098;-66
2021/10/29 02:20:28;;;;;;;23.08;17.10;;;9.60;99.90;;;;;;5055021;28;20052;-65
2021/10/29 02:22:53;;;;;;;22.90;16.08;;;9.70;99.90;;;;;;5056799;28;20044;-65
2021/10/29 02:25:19;;;;;;;19.67;15.23;;;9.70;99.90;;;;;;5054445;28;20518;-66
2021/10/29 02:27:44;;;;;;;25.60;17.20;;;9.70;99.90;;;;;;5058087;28;20550;-66
2021/10/29 02:30:10;;;;;;;20.33;15.65;;;9.70;99.90;;;;;;5064600;28;20041;-66
2021/10/29 02:32:36;;;;;;;21.25;15.98;;;9.70;99.90;;;;;;5064835;28;20678;-66
2021/10/29 02:35:02;;;;;;;18.48;15.35;;;9.70;99.90;;;;;;5067640;28;20398;-66
2021/10/29 02:37:27;;;;;;;19.38;15.82;;;9.70;99.90;;;;;;5066664;28;20041;-66
2021/10/29 02:39:53;;;;;;;20.10;16.35;;;9.70;99.90;;;;;;5062294;28;20040;-65
2021/10/29 02:42:19;;;;;;;21.02;15.07;;;9.70;99.90;;;;;;5061206;28;20507;-65
2021/10/29 02:44:44;;;;;;;19.38;15.65;;;9.60;99.90;;;;;;5063214;28;20044;-66
2021/10/29 02:47:11;;;;;;;20.42;15.98;;;9.70;99.90;;;;;;5061492;28;20029;-65
2021/10/29 02:49:37;;;;;;;22.58;15.32;;;9.70;99.90;;;;;;5063479;28;20090;-66
2021/10/29 02:52:04;;;;;;;19.92;14.90;;;9.70;99.90;;;;;;5063292;28;20060;-66
2021/10/29 02:54:29;;;;;;;21.50;15.10;;;9.70;99.90;;;;;;5063069;28;20390;-66
2021/10/29 02:56:55;;;;;;;19.88;15.07;;;9.70;99.90;;;;;;5060816;28;20044;-66
2021/10/29 02:59:21;;;;;;;17.67;15.18;;;9.70;99.90;;;;;;5062175;28;20391;-66
2021/10/29 03:01:46;;;;;;;19.67;16.00;;;9.70;99.90;;;;;;5063758;28;20037;-66
2021/10/29 03:04:12;;;;;;;20.15;15.27;;;9.70;99.90;;;;;;5059627;28;20041;-66
2021/10/29 03:06:37;;;;;;;21.05;15.45;;;9.70;99.90;;;;;;5060130;28;20044;-66
2021/10/29 03:09:03;;;;;;;23.60;15.10;;;9.70;99.90;;;;;;5066967;28;20163;-66
2021/10/29 03:11:29;;;;;;;21.02;14.85;;;9.60;99.90;;;;;;5061333;28;20135;-66
2021/10/29 03:13:55;;;;;;;17.45;15.63;;;9.60;99.90;;;;;;5063753;28;20458;-66
2021/10/29 03:16:21;;;;;;;27.13;15.50;;;9.60;99.90;;;;;;5066497;28;20063;-66
2021/10/29 03:18:46;;;;;;;22.67;14.98;;;9.60;99.90;;;;;;5093774;28;20045;-66
2021/10/29 03:21:12;;;;;;;17.52;14.82;;;9.60;99.90;;;;;;5066824;28;20040;-66
2021/10/29 03:23:38;;;;;;;18.45;14.88;;;9.70;99.90;;;;;;5066769;28;20063;-65
2021/10/29 03:26:03;;;;;;;18.05;14.90;;;9.70;99.90;;;;;;5062942;28;20110;-66
2021/10/29 03:28:29;;;;;;;23.73;14.82;;;9.70;99.90;;;;;;5060856;28;20478;-66
2021/10/29 03:30:55;;;;;;;19.20;15.18;;;9.70;99.90;;;;;;5059920;28;20057;-66
2021/10/29 03:33:20;;;;;;;22.25;14.25;;;9.70;99.90;;;;;;5061349;28;20051;-66
2021/10/29 03:35:46;;;;;;;21.17;14.85;;;9.70;99.90;;;;;;5059323;28;20082;-66
2021/10/29 03:48:27;;;;;;;19.30;15.90;;;9.70;99.90;;;;;;5086632;28;20088;-65
2021/10/29 03:51:02;;;;;;;20.25;14.85;;;9.80;99.90;;;;;;5091811;28;20162;-66
2021/10/29 03:55:59;;;;;;;22.80;15.15;;;9.80;99.90;;;;;;5061446;28;20299;-66
2021/10/29 03:58:24;;;;;;;20.00;15.40;;;9.80;99.90;;;;;;5090990;28;20048;-66
2021/10/29 04:00:50;;;;;;;20.83;14.52;;;9.80;99.90;;;;;;5058200;28;20033;-66
2021/10/29 04:03:16;;;;;;;22.35;15.88;;;9.80;99.90;;;;;;5063079;28;20041;-66
2021/10/29 04:05:42;;;;;;;19.33;14.80;;;9.80;99.90;;;;;;5061104;28;20414;-66
2021/10/29 04:08:09;;;;;;;23.52;15.13;;;9.80;99.90;;;;;;5060869;28;20044;-66
2021/10/29 04:10:39;;;;;;;18.13;14.15;;;9.80;99.90;;;;;;5063280;28;20041;-66
2021/10/29 04:13:09;;;;;;;19.33;15.05;;;9.80;99.90;;;;;;5063667;28;20049;-66
2021/10/29 04:15:37;;;;;;;23.13;15.63;;;9.80;99.90;;;;;;5057231;28;20036;-66
2021/10/29 04:18:02;;;;;;;26.10;16.20;;;9.80;99.90;;;;;;5061851;28;20475;-66
2021/10/29 04:20:28;;;;;;;21.63;14.52;;;9.90;99.90;;;;;;5059545;28;20195;-66
2021/10/29 04:22:54;;;;;;;18.23;13.90;;;9.80;99.90;;;;;;5064024;28;20140;-66
2021/10/29 04:25:20;;;;;;;20.33;14.02;;;9.80;99.90;;;;;;5065833;28;20527;-66
2021/10/29 04:27:57;;;;;;;19.63;14.52;;;9.80;99.90;;;;;;5076258;28;20041;-66
2021/10/29 04:30:25;;;;;;;21.75;15.45;;;9.80;99.90;;;;;;5060181;28;20055;-66
2021/10/29 04:32:51;;;;;;;20.15;13.20;;;9.80;99.90;;;;;;5061186;28;20044;-66
2021/10/29 04:35:17;;;;;;;21.40;13.80;;;9.80;99.90;;;;;;5056582;28;20475;-66
2021/10/29 04:37:43;;;;;;;17.75;13.50;;;9.80;99.90;;;;;;5059214;28;20078;-66
2021/10/29 04:40:09;;;;;;;20.10;14.52;;;9.80;99.90;;;;;;5062018;28;20090;-66
2021/10/29 04:42:38;;;;;;;21.55;14.00;;;9.80;99.90;;;;;;5062591;28;20441;-66
2021/10/29 04:45:05;;;;;;;17.85;14.10;;;9.80;99.90;;;;;;5072831;28;20045;-66
2021/10/29 04:47:31;;;;;;;19.50;15.05;;;9.80;99.90;;;;;;5066181;28;20397;-65
2021/10/29 04:49:56;;;;;;;22.38;14.73;;;9.80;99.90;;;;;;5064415;28;20044;-66
2021/10/29 04:52:22;;;;;;;20.05;13.80;;;9.80;99.90;;;;;;5059007;28;20044;-66
2021/10/29 04:54:48;;;;;;;22.33;13.43;;;9.80;99.90;;;;;;5099060;28;20069;-66
2021/10/29 04:57:14;;;;;;;15.85;13.65;;;9.90;99.90;;;;;;5066965;28;20044;-66
2021/10/29 04:59:39;;;;;;;19.27;13.15;;;9.90;99.90;;;;;;5065415;28;20036;-66
2021/10/29 05:02:05;;;;;;;17.45;13.07;;;9.90;99.90;;;;;;5061631;28;20044;-66
2021/10/29 05:04:31;;;;;;;22.25;14.15;;;9.90;99.90;;;;;;5061691;28;20040;-66
2021/10/29 05:06:57;;;;;;;16.90;13.23;;;9.90;99.90;;;;;;5063008;28;20043;-66
2021/10/29 05:09:22;;;;;;;21.38;13.20;;;10.00;99.90;;;;;;5090846;28;20936;-66
2021/10/29 05:11:48;;;;;;;16.27;13.13;;;10.00;99.90;;;;;;5064844;28;20126;-66
2021/10/29 05:14:13;;;;;;;16.95;13.00;;;10.00;99.90;;;;;;5061443;28;20075;-66
2021/10/29 05:16:39;;;;;;;20.90;12.95;;;10.00;99.90;;;;;;5057675;28;20607;-66
2021/10/29 05:19:05;;;;;;;20.65;12.43;;;10.00;99.90;;;;;;5054506;28;20955;-66
2021/10/29 05:21:31;;;;;;;18.60;13.15;;;10.00;99.90;;;;;;5058814;28;20132;-66
2021/10/29 05:23:57;;;;;;;17.65;12.63;;;10.00;99.90;;;;;;5058606;28;20123;-66
2021/10/29 05:26:23;;;;;;;19.20;11.95;;;10.00;99.90;;;;;;5059330;28;20058;-66
2021/10/29 05:28:48;;;;;;;15.30;11.25;;;10.00;99.90;;;;;;5059162;28;20079;-66
2021/10/29 05:31:15;;;;;;;18.33;11.95;;;10.00;99.90;;;;;;5057092;28;20477;-66
2021/10/29 05:33:41;;;;;;;16.05;11.60;;;10.00;99.90;;;;;;5088536;28;20078;-66
2021/10/29 05:36:07;;;;;;;22.58;12.50;;;10.00;99.90;;;;;;5058274;28;20048;-66
2021/10/29 05:38:33;;;;;;;18.27;12.10;;;10.00;99.90;;;;;;5054938;28;20041;-66
2021/10/29 05:41:00;;;;;;;16.60;12.05;;;10.00;99.90;;;;;;5073612;28;20049;-66
2021/10/29 05:43:45;;;;;;;13.70;11.55;;;10.00;99.90;;;;;;5054369;28;20506;-66
2021/10/29 05:46:11;;;;;;;19.92;11.57;;;10.00;99.90;;;;;;5056725;28;20501;-66
2021/10/29 05:48:39;;;;;;;17.77;11.60;;;10.00;99.90;;;;;;5056277;28;20075;-66
2021/10/29 05:51:09;;;;;;;16.58;11.90;;;10.00;99.90;;;;;;5058030;28;20040;-66
2021/10/29 05:53:52;;;;;;;16.80;11.90;;;10.00;99.90;;;;;;5058502;28;20398;-66
2021/10/29 05:56:21;;;;;;;14.10;11.43;;;10.00;99.90;;;;;;5058771;28;20029;-66
2021/10/29 05:58:47;;;;;;;17.40;11.93;;;10.00;99.90;;;;;;5055406;28;20037;-66
2021/10/29 06:01:12;;;;;;;16.75;11.45;;;10.10;99.90;;;;;;5092337;28;20033;-66
2021/10/29 06:03:38;;;;;;;14.18;10.85;;;10.10;99.90;;;;;;5056660;28;20036;-66
2021/10/29 06:06:04;;;;;;;15.23;11.30;;;10.10;99.90;;;;;;5053863;28;20432;-66
2021/10/29 06:08:30;;;;;;;14.02;11.25;;;10.00;99.90;;;;;;5058572;28;20049;-66
2021/10/29 06:10:55;;;;;;;17.90;11.23;;;10.00;99.90;;;;;;5060148;28;20063;-66
2021/10/29 06:13:21;;;;;;;16.55;11.35;;;10.10;99.90;;;;;;5056389;28;20094;-66
2021/10/29 06:15:48;;;;;;;13.85;11.88;;;10.10;99.90;;;;;;5054495;28;20040;-66
2021/10/29 06:18:22;;;;;;;15.15;11.32;;;10.20;99.90;;;;;;5054544;28;20055;-66
2021/10/29 06:20:49;;;;;;;14.32;11.27;;;10.10;99.90;;;;;;5058020;28;20041;-66
2021/10/29 06:23:14;;;;;;;13.73;10.43;;;10.20;99.90;;;;;;5055795;28;20098;-66
2021/10/29 06:25:42;;;;;;;16.88;10.32;;;10.20;99.90;;;;;;5056234;28;20056;-66
2021/10/29 06:28:13;;;;;;;20.10;10.73;;;10.20;99.90;;;;;;5056099;28;20043;-66
2021/10/29 06:30:42;;;;;;;15.00;10.90;;;10.20;99.90;;;;;;5092668;27;20043;-66
2021/10/29 06:33:13;;;;;;;15.32;10.80;;;10.20;99.90;;;;;;5059164;28;20080;-66
2021/10/29 06:35:42;;;;;;;15.27;10.82;;;10.20;99.90;;;;;;5059843;28;20040;-66
2021/10/29 06:38:09;;;;;;;15.07;10.40;;;10.20;99.90;;;;;;5059845;28;20044;-66
2021/10/29 06:40:43;;;;;;;19.45;10.63;;;10.20;99.90;;;;;;5060114;28;20128;-66
2021/10/29 06:43:20;;;;;;;15.50;11.27;;;10.30;99.90;;;;;;5060973;28;20036;-66
2021/10/29 06:46:05;;;;;;;12.65;10.32;;;10.30;99.90;;;;;;5061270;28;20048;-66
2021/10/29 06:59:29;;;;;;;32.05;11.20;;;10.50;99.90;;;;;;5059363;28;20155;-66
2021/10/29 07:40:39;;;;;;;10.98;8.80;;;11.00;99.90;;;;;;5030914;28;20486;-66
2021/10/29 07:43:08;;;;;;;15.82;9.88;;;11.10;99.90;;;;;;5048340;28;20082;-66
2021/10/29 07:45:34;;;;;;;14.25;9.32;;;11.10;99.90;;;;;;5047659;28;20076;-66
2021/10/29 07:48:00;;;;;;;12.20;9.32;;;11.10;99.90;;;;;;5047880;28;20056;-66
2021/10/29 07:50:27;;;;;;;12.75;9.60;;;11.10;99.90;;;;;;5046159;28;20048;-66
2021/10/29 07:52:57;;;;;;;14.70;10.15;;;11.20;99.90;;;;;;5073070;28;20056;-66
2021/10/29 07:55:26;;;;;;;13.02;9.23;;;11.30;99.90;;;;;;5045456;28;20033;-66
2021/10/29 07:57:52;;;;;;;16.02;9.88;;;11.30;99.90;;;;;;5046434;28;20052;-66
2021/10/29 08:00:20;;;;;;;16.08;9.50;;;11.30;99.90;;;;;;5043626;28;20090;-66
2021/10/29 08:02:51;;;;;;;13.00;9.65;;;11.40;99.90;;;;;;5043347;28;20047;-66
2021/10/29 08:05:18;;;;;;;15.98;9.93;;;11.40;99.90;;;;;;5073682;28;20498;-66
2021/10/29 08:07:43;;;;;;;13.60;9.77;;;11.40;99.90;;;;;;5045441;28;20045;-66
2021/10/29 08:10:11;;;;;;;16.90;9.68;;;11.50;99.90;;;;;;5046394;28;20040;-66
2021/10/29 08:12:38;;;;;;;16.35;9.20;;;11.60;99.90;;;;;;5046779;28;20056;-66
2021/10/29 08:15:05;;;;;;;13.00;8.98;;;11.70;99.90;;;;;;5042992;28;20059;-66
2021/10/29 08:17:33;;;;;;;13.60;8.77;;;11.70;99.90;;;;;;5046899;28;20770;-66
2021/10/29 08:20:07;;;;;;;12.65;8.38;;;11.70;99.90;;;;;;5045363;28;20371;-66
2021/10/29 08:22:34;;;;;;;12.23;8.32;;;11.70;99.90;;;;;;5049298;28;20052;-66
2021/10/29 08:25:00;;;;;;;12.60;9.13;;;11.80;99.90;;;;;;5049032;28;20479;-66
2021/10/29 08:27:26;;;;;;;11.32;9.10;;;11.80;99.90;;;;;;5045395;28;20054;-66
2021/10/29 08:29:51;;;;;;;10.70;8.25;;;11.80;99.90;;;;;;5047660;28;20045;-66
2021/10/29 08:32:17;;;;;;;11.95;9.27;;;11.90;99.90;;;;;;5050418;28;20037;-66
2021/10/29 08:34:43;;;;;;;14.43;8.50;;;11.90;99.90;;;;;;5050430;28;20047;-66
2021/10/29 08:37:10;;;;;;;13.27;8.40;;;12.00;99.90;;;;;;5047862;28;20048;-66
2021/10/29 08:39:38;;;;;;;16.40;9.80;;;12.10;99.90;;;;;;5050506;28;20120;-66
2021/10/29 08:42:05;;;;;;;11.57;8.52;;;12.20;99.90;;;;;;5033796;28;20079;-66
2021/10/29 08:44:32;;;;;;;17.10;9.07;;;12.20;99.90;;;;;;5051828;28;20937;-66
2021/10/29 08:47:01;;;;;;;20.55;8.68;;;12.30;99.90;;;;;;5051065;28;20071;-66
2021/10/29 08:49:28;;;;;;;11.30;8.75;;;12.30;99.90;;;;;;5048053;28;20077;-66
2021/10/29 08:51:54;;;;;;;13.77;8.05;;;12.40;99.90;;;;;;5048002;28;20155;-66
2021/10/29 08:54:20;;;;;;;16.42;8.85;;;12.50;99.90;;;;;;5048827;28;20046;-66
2021/10/29 08:56:46;;;;;;;13.02;8.55;;;12.50;99.90;;;;;;5053088;28;20045;-66
2021/10/29 08:59:34;;;;;;;11.93;8.98;;;12.50;99.90;;;;;;5049707;28;20045;-66
2021/10/29 09:09:52;;;;;;;14.63;8.57;;;12.80;99.90;;;;;;5048184;28;20052;-66
2021/10/29 09:31:23;;;;;;;14.15;8.23;;;12.90;99.90;;;;;;5048095;28;20048;-66
2021/10/29 09:32:54;;;;;;;12.25;6.82;;;13.20;99.90;;;;;;5049065;28;20175;-66
2021/10/29 09:35:24;;;;;;;9.40;7.13;;;13.20;99.90;;;;;;5046518;28;20056;-66
2021/10/29 09:38:00;;;;;;;11.98;7.25;;;13.30;99.90;;;;;;5049192;28;20058;-66
2021/10/29 09:40:27;;;;;;;11.88;6.93;;;13.40;99.90;;;;;;5057471;28;20071;-66
2021/10/29 09:42:59;;;;;;;15.52;7.90;;;13.40;99.90;;;;;;5083760;27;20406;-66
2021/10/29 09:45:30;;;;;;;15.35;7.32;;;13.60;99.90;;;;;;5057183;28;20090;-66
2021/10/29 09:48:24;;;;;;;16.25;7.93;;;13.60;99.90;;;;;;5076841;28;20049;-66
2021/10/29 09:50:55;;;;;;;11.45;7.97;;;13.70;99.90;;;;;;5086878;28;20498;-66
2021/10/29 09:54:13;;;;;;;9.55;7.35;;;13.80;99.90;;;;;;5049277;28;20131;-66
2021/10/29 09:58:51;;;;;;;13.07;7.25;;;13.90;99.90;;;;;;5076680;27;20041;-66
2021/10/29 10:01:22;;;;;;;7.10;6.32;;;13.90;99.90;;;;;;5046234;28;20036;-66
2021/10/29 10:03:52;;;;;;;12.10;6.88;;;13.90;99.90;;;;;;5048802;28;20997;-66
2021/10/29 10:06:20;;;;;;;14.10;7.57;;;13.90;99.90;;;;;;5076465;28;20178;-66
2021/10/29 10:08:49;;;;;;;25.70;8.30;;;14.00;99.90;;;;;;5044653;28;20070;-66
2021/10/29 10:11:15;;;;;;;13.75;7.38;;;13.90;99.90;;;;;;5050044;28;20046;-66
2021/10/29 10:13:41;;;;;;;11.23;7.10;;;14.00;99.90;;;;;;5047201;28;20269;-66
2021/10/29 10:16:08;;;;;;;13.77;7.43;;;14.00;99.90;;;;;;5048053;28;21238;-66
2021/10/29 10:18:34;;;;;;;9.98;6.60;;;14.20;99.90;;;;;;5048039;28;20036;-66
2021/10/29 10:21:04;;;;;;;11.80;7.15;;;14.30;99.90;;;;;;5054416;28;20075;-66
2021/10/29 10:23:34;;;;;;;12.02;6.30;;;14.40;99.90;;;;;;5045495;28;20712;-66
2021/10/29 10:40:44;;;;;;;11.55;6.38;;;15.20;99.90;;;;;;5050250;28;20041;-66
2021/10/29 10:43:24;;;;;;;8.93;5.85;;;15.40;99.90;;;;;;5047126;28;20409;-66
2021/10/29 10:46:40;;;;;;;9.93;5.93;;;15.50;99.90;;;;;;5056023;28;20048;-66
2021/10/29 10:49:06;;;;;;;11.95;5.22;;;15.70;99.90;;;;;;5047046;28;20049;-66
2021/10/29 10:54:16;;;;;;;;;;;16.00;99.90;;;;;;5048728;28;20052;-66
2021/10/29 11:02:33;;;;;;;9.40;5.57;;;16.60;99.90;;;;;;5075142;28;20066;-66
2021/10/29 11:11:11;;;;;;;5.53;4.45;;;16.90;99.90;;;;;;5075118;27;20664;-66
2021/10/29 11:13:43;;;;;;;8.85;4.80;;;17.10;99.90;;;;;;5049133;28;20052;-66
2021/10/29 11:16:15;;;;;;;5.75;4.70;;;17.20;99.90;;;;;;5049670;28;20086;-66
2021/10/29 11:18:55;;;;;;;5.07;4.35;;;17.20;99.90;;;;;;5049025;28;20048;-66
2021/10/29 11:21:33;;;;;;;6.47;4.45;;;17.30;99.90;;;;;;5052487;28;20056;-66
2021/10/29 11:24:00;;;;;;;7.65;4.20;;;17.40;99.90;;;;;;5048079;28;20094;-66
2021/10/29 11:26:29;;;;;;;9.80;5.07;;;17.40;99.90;;;;;;5052802;28;20164;-66
2021/10/29 11:28:57;;;;;;;7.38;4.22;;;17.40;99.90;;;;;;5074330;28;20040;-66
2021/10/29 11:31:26;;;;;;;7.93;4.15;;;17.40;99.90;;;;;;5058604;28;20056;-66
2021/10/29 11:33:55;;;;;;;9.98;4.68;;;17.50;99.90;;;;;;5045162;28;20168;-66
2021/10/29 11:36:30;;;;;;;7.22;4.93;;;17.60;99.90;;;;;;5050602;28;20040;-66
2021/10/29 11:38:57;;;;;;;9.07;3.92;;;17.60;99.90;;;;;;5048542;28;20085;-66
2021/10/29 11:41:29;;;;;;;9.23;5.03;;;17.60;99.90;;;;;;5046455;28;20028;-66
2021/10/29 11:44:05;;;;;;;18.45;5.30;;;17.70;99.90;;;;;;5073147;28;20087;-66
2021/10/29 11:46:32;;;;;;;10.50;4.10;;;17.70;99.90;;;;;;5042313;28;20052;-66
2021/10/29 11:49:05;;;;;;;6.40;4.18;;;17.70;99.90;;;;;;5046917;28;20048;-66
2021/10/29 11:51:32;;;;;;;7.40;5.05;;;17.80;99.90;;;;;;5050514;28;20041;-66
2021/10/29 11:54:13;;;;;;;6.57;4.00;;;17.70;99.90;;;;;;5049473;28;20044;-66
2021/10/29 11:59:50;;;;;;;6.93;4.07;;;17.60;99.90;;;;;;5091662;28;20048;-66
2021/10/29 12:07:53;;;;;;;6.88;4.32;;;17.50;99.90;;;;;;5032833;28;20047;-66
2021/10/29 12:10:21;;;;;;;7.68;3.90;;;17.50;99.90;;;;;;5065817;28;20040;-66
2021/10/29 12:12:49;;;;;;;5.95;3.70;;;17.70;99.90;;;;;;5066897;28;20123;-66
2021/10/29 12:15:21;;;;;;;7.75;4.00;;;17.70;99.90;;;;;;5065331;28;20082;-66
2021/10/29 12:18:05;;;;;;;8.77;4.00;;;17.60;99.90;;;;;;5067682;28;20482;-66
2021/10/29 12:20:38;;;;;;;6.00;3.55;;;17.60;99.90;;;;;;5054865;28;20478;-66
2021/10/29 12:23:17;;;;;;;8.07;3.85;;;17.60;99.90;;;;;;5064894;28;20395;-66
2021/10/29 12:25:55;;;;;;;13.30;3.70;;;17.50;99.90;;;;;;5065491;28;20045;-66
2021/10/29 12:30:54;;;;;;;8.18;4.53;;;17.50;99.90;;;;;;5065042;28;20056;-66
2021/10/29 13:03:57;;;;;;;;;;;17.20;99.90;;;;;;5099413;27;20056;-66
2021/10/29 13:06:38;;;;;;;13.20;3.72;;;17.20;99.90;;;;;;5070043;28;20352;-66
2021/10/29 13:09:15;;;;;;;6.05;4.05;;;17.10;99.90;;;;;;5064800;28;20048;-66
2021/10/29 13:11:57;;;;;;;8.23;4.10;;;17.00;99.90;;;;;;5063786;28;20079;-66
2021/10/29 13:16:55;;;;;;;8.00;3.85;;;16.80;99.90;;;;;;5064572;28;20394;-66
2021/10/29 13:19:40;;;;;;;8.43;3.85;;;16.70;99.90;;;;;;5051618;28;20044;-66
2021/10/29 13:27:34;;;;;;;6.63;3.78;;;16.40;99.90;;;;;;5064811;28;20791;-66
2021/10/29 13:36:14;;;;;;;5.97;3.13;;;16.40;99.90;;;;;;5007473;28;20411;-66
2021/10/29 13:52:01;;;;;;;7.85;3.60;;;16.20;99.90;;;;;;5054376;28;20053;-66
2021/10/29 14:34:58;;;;;;;7.80;2.30;;;16.40;99.90;;;;;;5019660;28;20054;-66
2021/10/29 14:37:35;;;;;;;8.25;2.38;;;16.40;99.90;;;;;;5056095;28;20462;-66
2021/10/29 14:40:10;;;;;;;3.90;2.67;;;16.40;99.90;;;;;;5056089;28;20051;-66
2021/10/29 14:42:42;;;;;;;7.38;3.65;;;16.40;99.90;;;;;;5087705;27;20047;-66
2021/10/29 14:45:27;;;;;;;6.35;2.60;;;16.40;99.90;;;;;;5056611;28;20194;-66
2021/10/29 14:48:08;;;;;;;4.60;2.35;;;16.40;99.90;;;;;;5055483;28;20056;-66
2021/10/29 15:00:24;;;;;;;5.60;2.60;;;16.10;99.90;;;;;;5087087;28;20049;-65
2021/10/29 15:01:51;;;;;;;6.57;2.47;;;16.10;99.90;;;;;;5055576;28;20045;-66
2021/10/29 15:46:05;;;;;;;3.75;2.80;;;15.30;99.90;;;;;;5087485;28;20066;-66
2021/10/29 15:48:41;;;;;;;6.35;2.67;;;15.20;99.90;;;;;;5060600;28;20445;-65
2021/10/29 15:51:06;;;;;;;4.10;2.75;;;15.10;99.90;;;;;;5055001;28;20063;-65
2021/10/29 15:53:32;;;;;;;4.00;2.50;;;15.10;99.90;;;;;;5059378;28;20044;-65
2021/10/29 15:56:05;;;;;;;7.40;3.50;;;15.00;99.90;;;;;;5056816;28;20044;-65
2021/10/29 15:58:36;;;;;;;3.40;2.40;;;15.00;99.90;;;;;;5058181;28;20037;-66
2021/10/29 16:19:27;;;;;;;7.20;3.03;;;14.70;99.90;;;;;;5057535;28;20132;-66
2021/10/29 16:21:53;;;;;;;7.20;3.33;;;14.70;99.90;;;;;;5054286;28;20037;-66
2021/10/29 16:24:19;;;;;;;3.75;2.47;;;14.70;99.90;;;;;;5058814;28;20048;-65
2021/10/29 16:26:46;;;;;;;3.65;2.85;;;14.60;99.90;;;;;;5060294;28;20482;-65
2021/10/29 16:29:14;;;;;;;2.95;2.50;;;14.60;99.90;;;;;;5060854;28;20127;-66
2021/10/29 16:31:46;;;;;;;6.80;2.90;;;14.60;99.90;;;;;;5057408;28;20075;-66
2021/10/29 16:34:12;;;;;;;6.68;3.25;;;14.60;99.90;;;;;;5059161;28;20081;-65
2021/10/29 16:36:38;;;;;;;9.60;3.55;;;14.70;99.90;;;;;;5063123;28;20430;-65
2021/10/29 16:39:04;;;;;;;8.63;3.08;;;14.70;99.90;;;;;;5087851;28;20041;-65
2021/10/29 16:41:30;;;;;;;4.22;2.83;;;14.70;99.90;;;;;;5057387;28;20502;-65
2021/10/29 16:43:56;;;;;;;5.57;3.22;;;14.70;99.90;;;;;;5090163;28;20048;-65
2021/10/29 16:46:22;;;;;;;7.03;3.72;;;14.70;99.90;;;;;;5064794;28;20044;-65
2021/10/29 16:48:49;;;;;;;4.47;3.08;;;14.70;99.90;;;;;;5064360;28;20517;-65
2021/10/29 16:51:15;;;;;;;5.88;2.45;;;14.70;99.90;;;;;;5068283;28;20090;-65
2021/10/29 16:53:41;;;;;;;7.22;3.60;;;14.60;99.90;;;;;;5061741;28;20507;-65
2021/10/29 16:56:07;;;;;;;3.67;2.33;;;14.70;99.90;;;;;;5081777;28;20403;-65
2021/10/29 16:58:33;;;;;;;8.45;3.55;;;14.60;99.90;;;;;;5064125;28;20036;-65
2021/10/29 17:00:59;;;;;;;5.15;2.58;;;14.60;99.90;;;;;;5066213;28;20048;-65
2021/10/29 17:03:24;;;;;;;11.18;3.13;;;14.70;99.90;;;;;;5068212;28;20040;-65
2021/10/29 17:05:51;;;;;;;6.03;3.13;;;14.70;99.90;;;;;;5064895;28;20041;-66
2021/10/29 17:08:17;;;;;;;5.80;2.40;;;14.70;99.90;;;;;;5064058;28;20814;-65
2021/10/29 17:10:43;;;;;;;4.35;3.22;;;14.80;99.90;;;;;;5064966;28;20038;-65
2021/10/29 17:13:10;;;;;;;6.60;2.80;;;14.70;99.90;;;;;;5061600;28;20060;-65
2021/10/29 17:15:36;;;;;;;4.15;2.35;;;14.80;99.90;;;;;;5068599;28;20068;-65
2021/10/29 17:18:03;;;;;;;10.52;3.20;;;14.80;99.90;;;;;;5060389;28;20048;-65
2021/10/29 17:20:30;;;;;;;5.07;3.28;;;14.80;99.90;;;;;;5063481;28;20040;-66
2021/10/29 17:22:56;;;;;;;6.75;3.28;;;14.80;99.90;;;;;;5063617;28;20044;-65
2021/10/29 17:25:22;;;;;;;6.57;3.00;;;14.90;99.90;;;;;;5061990;28;20044;-66
2021/10/29 17:27:48;;;;;;;3.70;2.88;;;14.80;99.90;;;;;;5063981;28;20041;-65
2021/10/29 17:30:15;;;;;;;6.75;2.70;;;14.90;99.90;;;;;;5063085;28;20036;-65
2021/10/29 17:32:43;;;;;;;5.70;2.97;;;14.90;99.90;;;;;;5088463;28;20048;-65
2021/10/29 17:35:09;;;;;;;9.10;3.17;;;14.90;99.90;;;;;;5064745;28;20076;-65
2021/10/29 17:37:35;;;;;;;8.77;2.63;;;14.90;99.90;;;;;;5063980;28;20052;-65
2021/10/29 17:40:03;;;;;;;15.57;3.78;;;15.00;99.90;;;;;;5060824;28;20044;-65
2021/10/29 17:42:29;;;;;;;7.18;3.00;;;14.90;99.90;;;;;;5093402;28;20482;-65